createdAt,value
2022-09-05T00:01:42.205Z,55.55
2022-09-05T00:04:25.221Z,55.11
2022-09-05T00:07:36.049Z,55.91
2022-09-05T00:10:10.161Z,55.60
2022-09-05T00:12:39.192Z,55.82
2022-09-05T00:15:25.220Z,55.49
2022-09-05T00:19:06.571Z,55.93
2022-09-05T00:24:21.408Z,55.94
2022-09-05T00:24:36.407Z,55.79
2022-09-05T00:26:50.454Z,55.73
2022-09-05T00:30:57.322Z,55.67
2022-09-05T00:32:33.222Z,56.44
2022-09-05T00:35:03.325Z,55.78
2022-09-05T00:37:38.809Z,56.75
2022-09-05T00:40:29.124Z,56.24
2022-09-05T00:43:02.568Z,56.24
2022-09-05T00:45:33.204Z,56.38
2022-09-05T00:48:03.544Z,56.25
2022-09-05T00:50:37.659Z,56.60
2022-09-05T00:53:09.420Z,57.39
2022-09-05T00:55:46.963Z,57.10
2022-09-05T00:58:34.109Z,57.00
2022-09-05T01:01:21.061Z,57.81
2022-09-05T01:03:53.672Z,56.95
2022-09-05T01:06:40.031Z,56.96
2022-09-05T01:09:08.445Z,57.29
2022-09-05T01:11:50.704Z,56.84
2022-09-05T01:14:37.593Z,57.63
2022-09-05T01:17:12.307Z,57.28
2022-09-05T01:19:39.670Z,57.57
2022-09-05T01:22:09.892Z,57.58
2022-09-05T01:24:55.502Z,57.81
2022-09-05T01:29:14.990Z,58.04
2022-09-05T01:30:43.215Z,58.15
2022-09-05T01:33:30.779Z,58.14
2022-09-05T01:36:07.344Z,57.61
2022-09-05T01:38:55.330Z,58.22
2022-09-05T01:41:39.919Z,57.74
2022-09-05T01:44:19.349Z,58.44
2022-09-05T01:47:05.561Z,58.74
2022-09-05T01:49:35.047Z,57.89
2022-09-05T01:52:26.400Z,58.01
2022-09-05T01:55:12.095Z,58.43
2022-09-05T01:57:42.658Z,58.00
2022-09-05T02:00:10.058Z,58.66
2022-09-05T02:02:58.985Z,58.43
2022-09-05T02:05:49.204Z,58.83
2022-09-05T02:08:35.649Z,58.61
2022-09-05T02:11:10.662Z,58.89
2022-09-05T02:13:38.697Z,59.08
2022-09-05T02:16:08.938Z,58.33
2022-09-05T02:18:58.377Z,58.75
2022-09-05T02:21:28.783Z,59.19
2022-09-05T02:24:16.421Z,58.49
2022-09-05T02:26:47.013Z,59.43
2022-09-05T02:29:29.169Z,59.77
2022-09-05T02:32:02.437Z,60.85
2022-09-05T02:34:32.609Z,60.29
2022-09-05T02:37:15.103Z,60.38
2022-09-05T02:45:04.248Z,60.94
2022-09-05T02:45:11.751Z,61.54
2022-09-05T02:45:37.062Z,61.21
2022-09-05T02:48:15.532Z,60.61
2022-09-05T02:55:56.086Z,60.75
2022-09-05T02:57:35.597Z,61.13
2022-09-05T02:57:36.861Z,61.17
2022-09-05T02:59:36.786Z,61.29
2022-09-05T03:02:27.094Z,61.27
2022-09-05T03:05:04.854Z,60.62
2022-09-05T03:07:52.000Z,60.86
2022-09-05T03:10:28.201Z,60.96
2022-09-05T03:13:29.225Z,60.99
2022-09-05T03:16:17.047Z,60.98
2022-09-05T03:19:03.109Z,61.12
2022-09-05T03:21:39.961Z,60.94
2022-09-05T03:24:10.380Z,61.23
2022-09-05T03:26:50.572Z,61.37
2022-09-05T03:29:29.962Z,61.39
2022-09-05T03:32:16.472Z,61.19
2022-09-05T03:34:51.608Z,60.88
2022-09-05T03:37:19.095Z,60.76
2022-09-05T03:39:55.541Z,60.18
2022-09-05T03:42:40.260Z,60.14
2022-09-05T03:45:15.037Z,60.09
2022-09-05T03:48:18.750Z,60.13
2022-09-05T03:55:13.519Z,60.51
2022-09-05T03:57:28.000Z,60.92
2022-09-05T03:57:38.541Z,60.75
2022-09-05T04:00:11.427Z,60.86
2022-09-05T04:07:26.982Z,60.65
2022-09-05T04:08:17.615Z,60.96
2022-09-05T04:08:41.811Z,60.86
2022-09-05T04:11:38.052Z,60.56
2022-09-05T04:14:08.466Z,61.14
2022-09-05T04:16:55.240Z,60.81
2022-09-05T04:19:38.949Z,61.26
2022-09-05T04:22:18.619Z,60.23
2022-09-05T04:24:52.025Z,60.02
2022-09-05T04:27:27.822Z,59.69
2022-09-05T04:29:55.212Z,59.75
2022-09-05T04:32:25.667Z,59.93
2022-09-05T04:35:02.274Z,59.97
2022-09-05T04:37:48.957Z,59.72
2022-09-05T04:40:34.613Z,58.97
2022-09-05T04:43:24.768Z,59.40
2022-09-05T04:46:02.060Z,59.15
2022-09-05T04:48:35.040Z,59.36
2022-09-05T04:51:06.274Z,58.93
2022-09-05T04:53:40.177Z,58.82
2022-09-05T04:56:12.693Z,58.77
2022-09-05T04:59:34.297Z,58.48
2022-09-05T05:06:09.094Z,58.25
2022-09-05T05:06:11.748Z,58.09
2022-09-05T05:07:25.255Z,57.99
2022-09-05T05:11:06.135Z,57.84
2022-09-05T05:17:57.804Z,57.07
2022-09-05T05:18:13.757Z,56.54
2022-09-05T05:18:59.584Z,56.14
2022-09-05T05:21:31.668Z,55.08
2022-09-05T05:24:09.046Z,55.06
2022-09-05T05:26:55.925Z,54.08
2022-09-05T05:29:31.703Z,54.22
2022-09-05T05:32:00.687Z,53.46
2022-09-05T05:34:54.417Z,52.90
2022-09-05T05:37:37.476Z,51.69
2022-09-05T05:40:11.036Z,51.56
2022-09-05T05:42:40.116Z,51.43
2022-09-05T05:45:18.186Z,51.92
2022-09-05T05:47:47.880Z,52.14
2022-09-05T05:50:18.485Z,52.17
2022-09-05T05:52:45.813Z,52.30
2022-09-05T05:55:51.465Z,52.09
2022-09-05T05:58:22.734Z,52.41
2022-09-05T06:00:55.944Z,52.41
2022-09-05T06:03:42.502Z,52.23
2022-09-05T06:06:47.388Z,51.85
2022-09-05T06:14:47.950Z,51.95
2022-09-05T06:15:03.768Z,51.68
2022-09-05T06:15:27.739Z,50.98
2022-09-05T06:18:14.598Z,50.69
2022-09-05T06:22:10.315Z,50.16
2022-09-05T06:24:14.382Z,49.65
2022-09-05T06:26:57.189Z,49.64
2022-09-05T06:29:47.064Z,49.85
2022-09-05T06:32:17.902Z,50.29
2022-09-05T06:34:48.131Z,50.16
2022-09-05T06:37:18.963Z,49.75
2022-09-05T06:39:58.677Z,49.29
2022-09-05T06:42:44.655Z,49.13
2022-09-05T06:45:28.982Z,48.62
2022-09-05T06:48:01.391Z,47.93
2022-09-05T06:50:53.237Z,48.04
2022-09-05T06:53:28.848Z,47.57
2022-09-05T06:56:03.702Z,47.47
2022-09-05T06:58:30.800Z,47.39
2022-09-05T07:00:59.394Z,46.64
2022-09-05T07:03:32.451Z,46.61
2022-09-05T07:06:19.531Z,46.17
2022-09-05T07:08:54.118Z,45.74
2022-09-05T07:11:21.474Z,45.49
2022-09-05T07:13:48.802Z,44.69
2022-09-05T07:16:26.636Z,44.52
2022-09-05T07:19:26.361Z,42.57
2022-09-05T07:21:59.699Z,41.55
2022-09-05T07:24:44.199Z,39.38
2022-09-05T07:28:23.578Z,38.34
2022-09-05T07:30:33.937Z,40.34
2022-09-05T07:33:02.634Z,41.20
2022-09-05T07:35:42.315Z,40.46
2022-09-05T07:38:18.426Z,39.24
2022-09-05T07:41:06.015Z,39.35
2022-09-05T07:43:46.641Z,39.87
2022-09-05T07:46:17.376Z,40.95
2022-09-05T07:48:49.111Z,41.23
2022-09-05T07:56:49.330Z,41.56
2022-09-05T07:56:54.388Z,42.32
2022-09-05T07:57:31.244Z,42.56
2022-09-05T08:00:23.084Z,42.86
2022-09-05T08:02:55.247Z,43.29
2022-09-05T08:05:34.582Z,43.57
2022-09-05T08:08:03.127Z,43.67
2022-09-05T08:11:22.243Z,43.79
2022-09-05T08:13:34.274Z,43.90
2022-09-05T08:16:09.984Z,44.29
2022-09-05T08:19:07.012Z,44.69
2022-09-05T08:21:42.466Z,44.53
2022-09-05T08:24:14.374Z,44.70
2022-09-05T08:26:49.877Z,44.43
2022-09-05T08:29:35.921Z,44.64
2022-09-05T08:32:08.886Z,44.37
2022-09-05T08:34:45.179Z,44.23
2022-09-05T08:37:20.925Z,43.91
2022-09-05T08:39:57.521Z,43.44
2022-09-05T08:42:42.625Z,43.37
2022-09-05T08:46:43.695Z,43.44
2022-09-05T08:48:32.793Z,43.76
2022-09-05T08:51:19.786Z,43.75
2022-09-05T08:53:55.988Z,43.82
2022-09-05T08:56:39.112Z,43.68
2022-09-05T08:59:31.725Z,43.47
2022-09-05T09:02:44.623Z,43.41
2022-09-05T09:05:14.281Z,43.01
2022-09-05T09:07:51.001Z,43.27
2022-09-05T09:10:35.051Z,43.34
2022-09-05T09:13:05.336Z,43.46
2022-09-05T09:15:47.892Z,43.73
2022-09-05T09:18:16.741Z,43.50
2022-09-05T09:20:55.887Z,43.47
2022-09-05T09:23:40.176Z,43.61
2022-09-05T09:26:15.901Z,43.52
2022-09-05T09:28:51.047Z,43.45
2022-09-05T09:31:28.567Z,43.50
2022-09-05T09:34:04.981Z,43.48
2022-09-05T09:36:52.404Z,43.19
2022-09-05T09:39:38.268Z,43.19
2022-09-05T09:42:09.709Z,43.07
2022-09-05T09:44:50.359Z,43.06
2022-09-05T09:47:22.388Z,42.98
2022-09-05T09:49:49.607Z,42.74
2022-09-05T09:52:20.646Z,42.90
2022-09-05T09:54:48.310Z,43.21
2022-09-05T09:57:37.389Z,43.39
2022-09-05T10:00:21.566Z,43.47
2022-09-05T10:06:30.198Z,43.77
2022-09-05T10:10:35.469Z,43.62
2022-09-05T10:11:09.344Z,43.36
2022-09-05T10:11:56.710Z,43.26
2022-09-05T10:14:45.038Z,43.26
2022-09-05T10:17:12.127Z,43.24
2022-09-05T10:22:36.690Z,43.65
2022-09-05T10:25:18.685Z,43.68
2022-09-05T10:28:00.785Z,44.13
2022-09-05T10:32:10.336Z,44.16
2022-09-05T10:35:17.698Z,43.71
2022-09-05T10:36:32.245Z,43.76
2022-09-05T10:39:15.223Z,44.01
2022-09-05T10:41:52.631Z,44.07
2022-09-05T10:44:41.243Z,44.10
2022-09-05T10:47:24.795Z,44.70
2022-09-05T10:50:06.000Z,45.00
2022-09-05T10:52:57.827Z,45.17
2022-09-05T10:55:43.622Z,45.13
2022-09-05T10:59:38.729Z,45.53
2022-09-05T11:02:29.621Z,45.28
2022-09-05T11:04:27.849Z,45.32
2022-09-05T11:07:04.985Z,45.32
2022-09-05T11:09:41.716Z,45.33
2022-09-05T11:12:28.478Z,45.18
2022-09-05T11:14:57.497Z,45.20
2022-09-05T11:17:24.762Z,44.80
2022-09-05T11:20:16.296Z,44.83
2022-09-05T11:22:58.111Z,45.06
2022-09-05T11:25:40.157Z,45.02
2022-09-05T11:28:15.224Z,44.89
2022-09-05T11:30:46.294Z,45.03
2022-09-05T11:39:55.601Z,46.03
2022-09-05T11:39:58.915Z,45.30
2022-09-05T11:40:10.360Z,45.66
2022-09-05T11:42:10.806Z,46.64
2022-09-05T11:44:38.380Z,46.59
2022-09-05T11:47:28.476Z,46.25
2022-09-05T11:49:56.358Z,46.42
2022-09-05T11:52:40.904Z,46.50
2022-09-05T11:55:23.826Z,46.85
2022-09-05T11:57:50.909Z,47.31
2022-09-05T12:00:33.643Z,47.49
2022-09-05T12:03:57.158Z,47.75
2022-09-05T12:06:09.718Z,47.77
2022-09-05T12:09:01.660Z,48.04
2022-09-05T12:11:43.363Z,47.99
2022-09-05T12:14:29.841Z,47.85
2022-09-05T12:17:03.420Z,47.57
2022-09-05T12:19:40.545Z,47.46
2022-09-05T12:22:26.908Z,47.54
2022-09-05T12:25:15.424Z,47.62
2022-09-05T12:27:50.894Z,47.47
2022-09-05T12:31:28.280Z,47.36
2022-09-05T12:36:01.484Z,47.59
2022-09-05T12:40:53.800Z,47.60
2022-09-05T12:41:33.231Z,47.64
2022-09-05T12:42:31.897Z,47.92
2022-09-05T12:45:30.465Z,47.85
2022-09-05T12:48:07.809Z,47.89
2022-09-05T12:50:35.363Z,47.84
2022-09-05T12:53:09.296Z,47.95
2022-09-05T12:55:41.603Z,48.13
2022-09-05T13:02:58.281Z,48.30
2022-09-05T13:03:14.548Z,48.38
2022-09-05T13:04:23.933Z,48.63
2022-09-05T13:06:58.644Z,48.73
2022-09-05T13:09:30.861Z,48.73
2022-09-05T13:14:57.929Z,48.76
2022-09-05T13:15:23.241Z,48.79
2022-09-05T13:17:54.745Z,48.87
2022-09-05T13:20:22.179Z,49.01
2022-09-05T13:22:52.320Z,49.27
2022-09-05T13:25:29.954Z,49.03
2022-09-05T13:28:03.936Z,49.08
2022-09-05T13:34:19.949Z,48.86
2022-09-05T13:38:07.413Z,49.55
2022-09-05T13:38:07.594Z,49.54
2022-09-05T13:39:28.384Z,49.96
2022-09-05T13:41:59.773Z,49.70
2022-09-05T13:44:28.350Z,49.97
2022-09-05T13:47:29.114Z,50.06
2022-09-05T13:49:53.869Z,50.18
2022-09-05T13:52:28.267Z,49.83
2022-09-05T13:54:55.275Z,50.15
2022-09-05T13:57:41.403Z,50.55
2022-09-05T14:00:27.048Z,50.23
2022-09-05T14:03:32.061Z,50.50
2022-09-05T14:06:47.812Z,50.72
2022-09-05T14:09:37.294Z,50.41
2022-09-05T14:12:11.699Z,50.37
2022-09-05T14:17:51.921Z,50.30
2022-09-05T14:20:38.653Z,50.15
2022-09-05T14:23:15.241Z,50.68
2022-09-05T14:25:44.759Z,50.42
2022-09-05T14:28:18.357Z,50.48
2022-09-05T14:33:59.626Z,50.92
2022-09-05T14:37:40.130Z,50.71
2022-09-05T14:37:43.459Z,50.68
2022-09-05T14:39:42.126Z,50.73
2022-09-05T14:42:19.883Z,50.88
2022-09-05T14:45:19.586Z,50.93
2022-09-05T14:48:13.289Z,50.97
2022-09-05T14:50:40.675Z,51.11
2022-09-05T14:56:02.822Z,51.28
2022-09-05T15:02:49.658Z,51.70
2022-09-05T15:02:52.509Z,51.64
2022-09-05T15:04:40.955Z,51.82
2022-09-05T15:07:19.067Z,52.03
2022-09-05T15:12:16.060Z,52.19
2022-09-05T15:12:45.468Z,52.22
2022-09-05T15:15:25.762Z,52.57
2022-09-05T15:17:56.009Z,52.38
2022-09-05T15:20:28.213Z,52.48
2022-09-05T15:22:57.558Z,52.74
2022-09-05T15:25:26.410Z,52.87
2022-09-05T15:27:54.856Z,53.51
2022-09-05T15:30:34.706Z,53.57
2022-09-05T15:33:25.441Z,53.81
2022-09-05T15:35:53.640Z,53.98
2022-09-05T15:38:27.198Z,53.84
2022-09-05T15:41:02.844Z,53.82
2022-09-05T15:43:30.630Z,53.93
2022-09-05T15:46:02.883Z,53.72
2022-09-05T15:48:33.979Z,53.90
2022-09-05T15:51:07.600Z,54.23
2022-09-05T15:53:37.254Z,54.28
2022-09-05T15:56:10.567Z,53.82
2022-09-05T15:58:53.102Z,53.96
2022-09-05T16:01:58.934Z,54.25
2022-09-05T16:08:21.765Z,54.54
2022-09-05T16:10:42.749Z,55.01
2022-09-05T16:10:48.349Z,55.67
2022-09-05T16:12:47.539Z,55.21
2022-09-05T16:23:13.232Z,55.20
2022-09-05T16:23:13.618Z,55.48
2022-09-05T16:23:37.334Z,56.06
2022-09-05T16:24:18.750Z,56.11
2022-09-05T16:27:03.907Z,56.09
2022-09-05T16:29:32.803Z,56.71
2022-09-05T16:31:59.952Z,57.13
2022-09-05T16:34:27.254Z,56.34
2022-09-05T16:37:08.195Z,55.96
2022-09-05T16:39:39.044Z,56.33
2022-09-05T16:42:47.027Z,56.50
2022-09-05T16:45:22.086Z,57.17
2022-09-05T16:47:52.403Z,56.44
2022-09-05T16:50:34.175Z,56.44
2022-09-05T16:53:05.429Z,57.30
2022-09-05T16:55:58.316Z,56.75
2022-09-05T16:58:37.474Z,56.77
2022-09-05T17:01:08.560Z,56.71
2022-09-05T17:03:41.785Z,57.41
2022-09-05T17:06:26.071Z,57.31
2022-09-05T17:09:03.220Z,57.26
2022-09-05T17:12:00.331Z,57.15
2022-09-05T17:14:36.312Z,57.03
2022-09-05T17:18:12.790Z,57.10
2022-09-05T17:20:08.125Z,57.40
2022-09-05T17:26:46.900Z,57.44
2022-09-05T17:29:19.063Z,57.16
2022-09-05T17:29:30.256Z,57.24
2022-09-05T17:31:53.620Z,57.72
2022-09-05T17:34:34.997Z,57.46
2022-09-05T17:37:04.681Z,58.22
2022-09-05T17:39:44.736Z,58.68
2022-09-05T17:42:29.786Z,59.22
2022-09-05T17:45:20.244Z,59.14
2022-09-05T17:47:49.564Z,58.66
2022-09-05T17:50:28.130Z,58.75
2022-09-05T17:53:24.912Z,59.91
2022-09-05T17:55:52.689Z,58.86
2022-09-05T17:58:22.401Z,60.29
2022-09-05T18:00:52.651Z,59.75
2022-09-05T18:03:38.994Z,59.95
2022-09-05T18:06:15.272Z,59.74
2022-09-05T18:08:45.421Z,60.46
2022-09-05T18:11:27.711Z,59.50
2022-09-05T18:14:02.964Z,59.84
2022-09-05T18:16:43.351Z,59.43
2022-09-05T18:20:06.579Z,59.26
2022-09-05T18:22:36.247Z,60.11
2022-09-05T18:25:15.696Z,60.23
2022-09-05T18:28:04.693Z,59.78
2022-09-05T18:33:55.946Z,59.65
2022-09-05T18:35:55.884Z,59.20
2022-09-05T18:38:50.939Z,60.66
2022-09-05T18:41:18.746Z,60.88
2022-09-05T18:44:12.609Z,60.80
2022-09-05T18:46:42.569Z,61.19
2022-09-05T18:50:19.308Z,61.29
2022-09-05T18:52:07.872Z,62.01
2022-09-05T18:54:36.235Z,61.60
2022-09-05T18:57:28.610Z,61.19
2022-09-05T19:00:03.442Z,61.81
2022-09-05T19:02:50.311Z,62.00
2022-09-05T19:05:43.727Z,60.79
2022-09-05T19:08:28.751Z,61.00
2022-09-05T19:10:58.865Z,61.48
2022-09-05T19:13:40.351Z,61.78
2022-09-05T19:16:42.372Z,61.20
2022-09-05T19:19:08.799Z,61.48
2022-09-05T19:21:39.200Z,61.51
2022-09-05T19:24:10.129Z,61.83
2022-09-05T19:26:37.534Z,62.26
2022-09-05T19:35:50.097Z,60.90
2022-09-05T19:37:09.437Z,61.97
2022-09-05T19:37:12.520Z,61.60
2022-09-05T19:37:47.888Z,61.79
2022-09-05T19:45:55.837Z,61.88
2022-09-05T19:47:35.920Z,61.54
2022-09-05T19:47:41.505Z,61.14
2022-09-05T19:49:04.125Z,61.08
2022-09-05T19:51:31.294Z,61.55
2022-09-05T19:54:04.445Z,61.19
2022-09-05T19:56:35.802Z,61.13
2022-09-05T19:59:14.579Z,61.28
2022-09-05T20:01:43.199Z,61.56
2022-09-05T20:04:16.539Z,61.10
2022-09-05T20:06:44.002Z,61.10
2022-09-05T20:09:14.643Z,61.75
2022-09-05T20:11:46.745Z,61.47
2022-09-05T20:14:18.843Z,61.41
2022-09-05T20:16:49.708Z,61.37
2022-09-05T20:19:28.316Z,61.58
2022-09-05T20:21:58.455Z,61.06
2022-09-05T20:24:25.851Z,61.17
2022-09-05T20:26:53.445Z,61.13
2022-09-05T20:29:43.469Z,61.85
2022-09-05T20:32:18.714Z,60.75
2022-09-05T20:37:00.880Z,60.61
2022-09-05T20:43:23.243Z,61.64
2022-09-05T20:43:31.117Z,61.45
2022-09-05T20:43:52.478Z,61.56
2022-09-05T20:48:58.796Z,60.94
2022-09-05T20:54:18.399Z,61.21
2022-09-05T20:54:21.347Z,61.26
2022-09-05T20:55:38.618Z,61.09
2022-09-05T20:58:10.591Z,61.18
2022-09-05T21:00:41.716Z,61.26
2022-09-05T21:03:38.126Z,61.51
2022-09-05T21:06:20.222Z,61.44
2022-09-05T21:08:48.128Z,61.66
2022-09-05T21:11:15.607Z,61.23
2022-09-05T21:13:52.421Z,61.34
2022-09-05T21:16:27.796Z,61.89
2022-09-05T21:18:55.321Z,61.25
2022-09-05T21:21:28.799Z,61.02
2022-09-05T21:24:05.251Z,61.47
2022-09-05T21:26:44.192Z,61.49
2022-09-05T21:29:11.582Z,61.65
2022-09-05T21:31:46.017Z,61.94
2022-09-05T21:34:35.737Z,61.08
2022-09-05T21:37:07.233Z,61.59
2022-09-05T21:39:37.977Z,61.32
2022-09-05T21:43:40.862Z,61.32
2022-09-05T21:47:39.035Z,62.23
2022-09-05T21:47:52.055Z,61.37
2022-09-05T21:50:31.241Z,61.79
2022-09-05T21:53:13.181Z,62.02
2022-09-05T21:59:17.169Z,62.16
2022-09-05T21:59:25.012Z,61.16
2022-09-05T22:01:44.644Z,62.20
2022-09-05T22:04:12.301Z,62.22
2022-09-05T22:06:39.816Z,62.02
2022-09-05T22:09:12.889Z,61.51
2022-09-05T22:11:41.451Z,62.04
2022-09-05T22:14:09.280Z,62.06
2022-09-05T22:16:40.031Z,62.07
2022-09-05T22:19:13.013Z,61.96
2022-09-05T22:21:40.853Z,62.63
2022-09-05T22:24:09.655Z,61.86
2022-09-05T22:26:40.415Z,62.36
2022-09-05T22:29:27.352Z,62.66
2022-09-05T22:31:55.411Z,62.61
2022-09-05T22:34:22.694Z,62.53
2022-09-05T22:36:51.039Z,62.79
2022-09-05T22:39:27.367Z,62.77
2022-09-05T22:42:09.939Z,62.44
2022-09-05T22:44:39.251Z,62.12
2022-09-05T22:47:09.882Z,61.69
2022-09-05T22:49:37.100Z,62.30
2022-09-05T22:52:05.885Z,62.52
2022-09-05T22:54:33.407Z,62.28
2022-09-05T22:57:00.569Z,62.16
2022-09-05T22:59:27.786Z,62.64
2022-09-05T23:01:55.158Z,62.15
2022-09-05T23:04:23.669Z,61.72
2022-09-05T23:06:50.988Z,61.94
2022-09-05T23:09:18.094Z,61.64
2022-09-05T23:11:45.303Z,62.13
2022-09-05T23:14:12.627Z,62.15
2022-09-05T23:16:39.792Z,62.08
2022-09-05T23:19:06.930Z,62.08
2022-09-05T23:21:34.365Z,62.41
2022-09-05T23:24:01.461Z,62.53
2022-09-05T23:26:28.683Z,62.56
2022-09-05T23:28:56.123Z,62.43
2022-09-05T23:31:23.537Z,62.81
2022-09-05T23:33:52.065Z,62.30
2022-09-05T23:36:19.684Z,62.07
2022-09-05T23:38:47.136Z,62.42
2022-09-05T23:41:14.928Z,62.61
2022-09-05T23:43:42.440Z,62.11
2022-09-05T23:46:09.956Z,62.83
2022-09-05T23:48:37.053Z,62.43
2022-09-05T23:51:06.975Z,62.95
2022-09-05T23:53:34.506Z,62.58
2022-09-05T23:56:05.742Z,62.94
2022-09-05T23:58:33.664Z,62.71
